Wheeler Observed Data For Previous 48 Hours

Caption
Day and Hour Reservoir Elevation (behind dam)* Tailwater Elevation (below dam)* Average Hourly Discharge*
2/22/2020 1 AM CST 550.69 508.49 224,228
2/22/2020 2 AM CST 550.66 508.50 223,953
2/22/2020 3 AM CST 550.62 508.52 223,497
2/22/2020 4 AM CST 550.57 508.53 223,094
2/22/2020 5 AM CST 550.54 508.51 222,487
2/22/2020 6 AM CST 550.51 508.56 222,214
2/22/2020 7 AM CST 550.45 508.50 221,571
2/22/2020 8 AM CST 550.41 508.51 222,048
2/22/2020 9 AM CST 550.35 508.43 221,947
2/22/2020 10 AM CST 550.39 508.39 214,392
2/22/2020 11 AM CST 550.47 508.28 204,339
2/22/2020 12 PM CST 550.52 508.27 191,489
2/22/2020 1 PM CST 550.57 508.28 189,909
2/22/2020 2 PM CST 550.60 508.22 190,369
2/22/2020 3 PM CST 550.64 508.34 190,786
2/22/2020 4 PM CST 550.69 508.28 191,486
2/22/2020 5 PM CST 550.70 508.31 191,824
2/22/2020 6 PM CST 550.73 508.30 191,959
2/22/2020 7 PM CST 550.75 508.34 192,046
2/22/2020 8 PM CST 550.76 508.33 192,325
2/22/2020 9 PM CST 550.79 508.33 192,295
2/22/2020 10 PM CST 550.80 508.34 192,280
2/22/2020 11 PM CST 550.82 508.36 192,610
2/23/2020 12 AM CST 550.83 508.37 192,571
2/23/2020 1 AM CST 550.85 508.40 192,644
2/23/2020 2 AM CST 550.85 508.40 192,915
2/23/2020 3 AM CST 550.87 508.42 192,737
2/23/2020 4 AM CST 550.88 508.43 192,805
2/23/2020 5 AM CST 550.88 508.45 192,876
2/23/2020 6 AM CST 550.89 508.45 193,046
2/23/2020 7 AM CST 550.89 508.47 192,721
2/23/2020 8 AM CST 550.89 508.46 192,526
2/23/2020 9 AM CST 550.90 508.46 192,600
2/23/2020 10 AM CST 550.89 508.48 192,411
2/23/2020 11 AM CST 550.90 508.42 192,254
2/23/2020 12 PM CST 550.88 508.40 192,492
2/23/2020 1 PM CST 550.89 508.34 193,121
2/23/2020 2 PM CST 550.88 508.29 193,140
2/23/2020 3 PM CST 550.88 508.22 193,306
2/23/2020 4 PM CST 550.88 508.27 193,479
2/23/2020 5 PM CST 550.85 508.19 193,614
2/23/2020 6 PM CST 550.85 508.17 193,531
2/23/2020 7 PM CST 550.84 508.18 193,272
2/23/2020 8 PM CST 550.82 508.15 193,199
2/23/2020 9 PM CST 550.81 508.19 192,938
2/23/2020 10 PM CST 550.80 508.17 192,947
2/23/2020 11 PM CST 550.80 508.17 193,134
2/24/2020 12 AM CST 550.79 508.19 192,868
2/24/2020 1 AM CST 550.77 508.17 192,933
2/24/2020 2 AM CST 550.76 508.18 192,773
2/24/2020 3 AM CST 550.75 508.19 192,796
2/24/2020 4 AM CST 550.74 508.16 192,480
2/24/2020 5 AM CST 550.72 508.16 192,512
2/24/2020 6 AM CST 550.72 508.13 192,513
2/24/2020 7 AM CST 550.70 508.17 192,100
2/24/2020 8 AM CST 550.90 506.55 156,488
2/24/2020 9 AM CST 550.97 506.36 153,804
2/24/2020 10 AM CST 551.04 506.30 153,518
2/24/2020 11 AM CST 551.11 506.20 153,285
2/24/2020 12 PM CST 551.21 505.98 153,466
2/24/2020 1 PM CST 551.31 505.89 153,208
2/24/2020 2 PM CST 551.37 505.82 153,484
2/24/2020 3 PM CST 551.40 505.76 154,477
2/24/2020 4 PM CST 551.48 505.74 154,504
2/24/2020 5 PM CST 551.50 505.74 155,033
2/24/2020 6 PM CST 551.57 505.76 155,126
2/24/2020 7 PM CST 551.60 505.75 155,187

Elevations are in feet above sea level. Discharges are in cubic feet per second and are reported at the end of the hour.